sensor_id;sensor_type;location;lat;lon;timestamp;P1;durP1;ratioP1;P2;durP2;ratioP2
22606;SDS011;11470;20.968;105.834;2023-08-07T00:01:37;13.10;;;7.28;;
22606;SDS011;11470;20.968;105.834;2023-08-07T00:06:42;10.93;;;6.60;;
22606;SDS011;11470;20.968;105.834;2023-08-07T00:11:48;13.15;;;6.82;;
22606;SDS011;11470;20.968;105.834;2023-08-07T00:16:53;7.63;;;5.40;;
22606;SDS011;11470;20.968;105.834;2023-08-07T00:21:58;13.25;;;5.47;;
22606;SDS011;11470;20.968;105.834;2023-08-07T00:27:04;13.48;;;5.68;;
22606;SDS011;11470;20.968;105.834;2023-08-07T00:32:10;11.57;;;4.72;;
22606;SDS011;11470;20.968;105.834;2023-08-07T00:37:15;8.27;;;5.15;;
22606;SDS011;11470;20.968;105.834;2023-08-07T00:47:28;9.63;;;3.53;;
22606;SDS011;11470;20.968;105.834;2023-08-07T00:52:37;7.88;;;4.18;;
22606;SDS011;11470;20.968;105.834;2023-08-07T01:02:51;7.65;;;3.88;;
22606;SDS011;11470;20.968;105.834;2023-08-07T01:07:58;6.55;;;3.30;;
22606;SDS011;11470;20.968;105.834;2023-08-07T01:13:20;9.68;;;2.35;;
22606;SDS011;11470;20.968;105.834;2023-08-07T01:18:34;4.07;;;2.03;;
22606;SDS011;11470;20.968;105.834;2023-08-07T01:23:40;1.67;;;1.30;;
22606;SDS011;11470;20.968;105.834;2023-08-07T01:28:49;4.95;;;1.60;;
22606;SDS011;11470;20.968;105.834;2023-08-07T01:34:07;5.95;;;1.85;;
22606;SDS011;11470;20.968;105.834;2023-08-07T01:39:14;2.08;;;0.98;;
22606;SDS011;11470;20.968;105.834;2023-08-07T01:44:20;2.25;;;1.00;;
22606;SDS011;11470;20.968;105.834;2023-08-07T01:49:26;1.85;;;1.13;;
22606;SDS011;11470;20.968;105.834;2023-08-07T01:54:33;2.50;;;0.85;;
22606;SDS011;11470;20.968;105.834;2023-08-07T01:59:38;2.00;;;0.70;;
22606;SDS011;11470;20.968;105.834;2023-08-07T02:04:44;4.97;;;1.00;;
22606;SDS011;11470;20.968;105.834;2023-08-07T02:09:50;1.42;;;0.50;;
22606;SDS011;11470;20.968;105.834;2023-08-07T02:14:55;2.05;;;0.80;;
22606;SDS011;11470;20.968;105.834;2023-08-07T02:20:01;0.80;;;0.50;;
22606;SDS011;11470;20.968;105.834;2023-08-07T02:30:12;0.40;;;0.23;;
22606;SDS011;11470;20.968;105.834;2023-08-07T02:35:18;4.85;;;1.00;;
22606;SDS011;11470;20.968;105.834;2023-08-07T02:40:25;3.90;;;0.60;;
22606;SDS011;11470;20.968;105.834;2023-08-07T02:45:31;1.60;;;0.70;;
22606;SDS011;11470;20.968;105.834;2023-08-07T02:50:39;2.47;;;0.90;;
22606;SDS011;11470;20.968;105.834;2023-08-07T02:55:44;3.03;;;1.30;;
22606;SDS011;11470;20.968;105.834;2023-08-07T03:00:50;1.42;;;0.22;;
22606;SDS011;11470;20.968;105.834;2023-08-07T03:05:55;1.33;;;0.60;;
22606;SDS011;11470;20.968;105.834;2023-08-07T03:11:01;0.80;;;0.40;;
22606;SDS011;11470;20.968;105.834;2023-08-07T03:16:07;9.48;;;0.77;;
22606;SDS011;11470;20.968;105.834;2023-08-07T03:21:13;2.90;;;0.65;;
22606;SDS011;11470;20.968;105.834;2023-08-07T03:26:19;1.33;;;0.63;;
22606;SDS011;11470;20.968;105.834;2023-08-07T03:31:27;6.63;;;0.65;;
22606;SDS011;11470;20.968;105.834;2023-08-07T03:36:33;3.15;;;0.80;;
22606;SDS011;11470;20.968;105.834;2023-08-07T03:41:39;0.70;;;0.40;;
22606;SDS011;11470;20.968;105.834;2023-08-07T03:46:46;1.02;;;0.65;;
22606;SDS011;11470;20.968;105.834;2023-08-07T03:51:56;2.78;;;0.82;;
22606;SDS011;11470;20.968;105.834;2023-08-07T03:57:05;1.50;;;0.47;;
22606;SDS011;11470;20.968;105.834;2023-08-07T04:02:13;1.33;;;0.40;;
22606;SDS011;11470;20.968;105.834;2023-08-07T04:07:19;0.80;;;0.50;;
22606;SDS011;11470;20.968;105.834;2023-08-07T04:12:25;1.23;;;0.45;;
22606;SDS011;11470;20.968;105.834;2023-08-07T04:23:11;2.67;;;0.63;;
22606;SDS011;11470;20.968;105.834;2023-08-07T04:28:19;5.05;;;0.80;;
22606;SDS011;11470;20.968;105.834;2023-08-07T04:33:25;0.90;;;0.75;;
22606;SDS011;11470;20.968;105.834;2023-08-07T04:38:31;1.33;;;0.93;;
22606;SDS011;11470;20.968;105.834;2023-08-07T04:43:41;0.50;;;0.50;;
22606;SDS011;11470;20.968;105.834;2023-08-07T04:48:49;1.38;;;0.70;;
22606;SDS011;11470;20.968;105.834;2023-08-07T04:53:58;2.97;;;0.82;;
22606;SDS011;11470;20.968;105.834;2023-08-07T04:59:11;1.35;;;0.63;;
22606;SDS011;11470;20.968;105.834;2023-08-07T05:04:17;1.95;;;0.70;;
22606;SDS011;11470;20.968;105.834;2023-08-07T05:09:25;2.70;;;0.85;;
22606;SDS011;11470;20.968;105.834;2023-08-07T05:14:32;3.08;;;0.70;;
22606;SDS011;11470;20.968;105.834;2023-08-07T05:30:16;5.63;;;1.40;;
22606;SDS011;11470;20.968;105.834;2023-08-07T05:35:21;1.88;;;0.90;;
22606;SDS011;11470;20.968;105.834;2023-08-07T05:40:26;2.75;;;1.10;;
22606;SDS011;11470;20.968;105.834;2023-08-07T05:45:33;2.70;;;1.08;;
22606;SDS011;11470;20.968;105.834;2023-08-07T05:55:44;3.25;;;1.23;;
22606;SDS011;11470;20.968;105.834;2023-08-07T06:00:50;2.75;;;1.92;;
22606;SDS011;11470;20.968;105.834;2023-08-07T06:05:55;2.88;;;1.10;;
22606;SDS011;11470;20.968;105.834;2023-08-07T06:11:00;2.85;;;0.95;;
22606;SDS011;11470;20.968;105.834;2023-08-07T06:16:09;4.30;;;1.35;;
22606;SDS011;11470;20.968;105.834;2023-08-07T06:21:14;3.58;;;1.10;;
22606;SDS011;11470;20.968;105.834;2023-08-07T06:31:25;3.97;;;1.20;;
22606;SDS011;11470;20.968;105.834;2023-08-07T06:43:32;1.75;;;0.88;;
22606;SDS011;11470;20.968;105.834;2023-08-07T06:48:37;3.00;;;1.08;;
22606;SDS011;11470;20.968;105.834;2023-08-07T06:58:48;1.83;;;1.13;;
22606;SDS011;11470;20.968;105.834;2023-08-07T07:03:53;3.42;;;1.23;;
22606;SDS011;11470;20.968;105.834;2023-08-07T07:09:20;3.00;;;1.10;;
22606;SDS011;11470;20.968;105.834;2023-08-07T07:14:39;1.50;;;0.77;;
22606;SDS011;11470;20.968;105.834;2023-08-07T07:19:45;3.10;;;0.90;;
22606;SDS011;11470;20.968;105.834;2023-08-07T07:25:04;1.17;;;0.70;;
22606;SDS011;11470;20.968;105.834;2023-08-07T07:30:12;2.30;;;0.85;;
22606;SDS011;11470;20.968;105.834;2023-08-07T07:35:39;1.17;;;0.55;;
22606;SDS011;11470;20.968;105.834;2023-08-07T07:40:55;3.35;;;0.90;;
22606;SDS011;11470;20.968;105.834;2023-08-07T07:51:59;0.35;;;0.35;;
22606;SDS011;11470;20.968;105.834;2023-08-07T07:57:05;2.25;;;0.60;;
22606;SDS011;11470;20.968;105.834;2023-08-07T08:02:12;0.30;;;0.30;;
22606;SDS011;11470;20.968;105.834;2023-08-07T08:12:56;7.60;;;0.50;;
22606;SDS011;11470;20.968;105.834;2023-08-07T08:18:02;2.40;;;0.40;;
22606;SDS011;11470;20.968;105.834;2023-08-07T08:23:10;1.00;;;0.63;;
22606;SDS011;11470;20.968;105.834;2023-08-07T08:28:16;0.55;;;0.30;;
22606;SDS011;11470;20.968;105.834;2023-08-07T08:33:26;1.90;;;0.57;;
22606;SDS011;11470;20.968;105.834;2023-08-07T08:38:32;2.70;;;0.43;;
22606;SDS011;11470;20.968;105.834;2023-08-07T08:43:39;5.47;;;0.68;;
22606;SDS011;11470;20.968;105.834;2023-08-07T08:48:49;0.85;;;0.43;;
22606;SDS011;11470;20.968;105.834;2023-08-07T08:54:04;0.65;;;0.40;;
22606;SDS011;11470;20.968;105.834;2023-08-07T08:59:11;1.35;;;0.57;;
22606;SDS011;11470;20.968;105.834;2023-08-07T09:04:17;0.85;;;0.60;;
22606;SDS011;11470;20.968;105.834;2023-08-07T09:09:23;0.85;;;0.60;;
22606;SDS011;11470;20.968;105.834;2023-08-07T09:14:29;1.65;;;0.70;;
22606;SDS011;11470;20.968;105.834;2023-08-07T09:19:41;2.63;;;0.43;;
22606;SDS011;11470;20.968;105.834;2023-08-07T09:24:47;1.27;;;0.75;;
22606;SDS011;11470;20.968;105.834;2023-08-07T09:29:55;1.77;;;0.90;;
22606;SDS011;11470;20.968;105.834;2023-08-07T09:35:03;2.65;;;0.52;;
22606;SDS011;11470;20.968;105.834;2023-08-07T09:40:10;1.60;;;1.00;;
22606;SDS011;11470;20.968;105.834;2023-08-07T09:45:20;3.90;;;1.10;;
22606;SDS011;11470;20.968;105.834;2023-08-07T09:50:30;5.72;;;1.52;;
22606;SDS011;11470;20.968;105.834;2023-08-07T09:55:35;2.85;;;1.50;;
22606;SDS011;11470;20.968;105.834;2023-08-07T10:00:41;3.15;;;1.60;;
22606;SDS011;11470;20.968;105.834;2023-08-07T10:05:48;3.15;;;0.40;;
22606;SDS011;11470;20.968;105.834;2023-08-07T10:10:54;4.32;;;1.75;;
22606;SDS011;11470;20.968;105.834;2023-08-07T10:16:03;5.68;;;2.53;;
22606;SDS011;11470;20.968;105.834;2023-08-07T10:26:47;5.03;;;1.90;;
22606;SDS011;11470;20.968;105.834;2023-08-07T10:31:55;5.80;;;2.97;;
22606;SDS011;11470;20.968;105.834;2023-08-07T10:37:02;8.07;;;2.63;;
22606;SDS011;11470;20.968;105.834;2023-08-07T10:42:12;9.23;;;3.28;;
22606;SDS011;11470;20.968;105.834;2023-08-07T10:52:55;10.45;;;4.93;;
22606;SDS011;11470;20.968;105.834;2023-08-07T10:58:05;9.43;;;4.90;;
22606;SDS011;11470;20.968;105.834;2023-08-07T11:03:28;7.60;;;4.05;;
22606;SDS011;11470;20.968;105.834;2023-08-07T11:08:34;9.15;;;4.15;;
22606;SDS011;11470;20.968;105.834;2023-08-07T11:13:40;10.38;;;4.78;;
22606;SDS011;11470;20.968;105.834;2023-08-07T11:18:51;10.70;;;4.55;;
22606;SDS011;11470;20.968;105.834;2023-08-07T11:23:59;7.63;;;3.67;;
22606;SDS011;11470;20.968;105.834;2023-08-07T11:29:06;8.55;;;4.80;;
22606;SDS011;11470;20.968;105.834;2023-08-07T11:35:28;12.20;;;4.20;;
22606;SDS011;11470;20.968;105.834;2023-08-07T11:41:01;11.50;;;3.90;;
22606;SDS011;11470;20.968;105.834;2023-08-07T11:46:28;13.32;;;5.10;;
22606;SDS011;11470;20.968;105.834;2023-08-07T12:08:37;7.30;;;3.97;;
22606;SDS011;11470;20.968;105.834;2023-08-07T12:13:43;10.02;;;3.95;;
22606;SDS011;11470;20.968;105.834;2023-08-07T12:19:01;12.05;;;5.55;;
22606;SDS011;11470;20.968;105.834;2023-08-07T12:24:11;13.73;;;5.88;;
22606;SDS011;11470;20.968;105.834;2023-08-07T12:29:39;20.10;;;8.43;;
22606;SDS011;11470;20.968;105.834;2023-08-07T12:34:44;15.57;;;7.57;;
22606;SDS011;11470;20.968;105.834;2023-08-07T12:40:06;12.85;;;6.85;;
22606;SDS011;11470;20.968;105.834;2023-08-07T12:45:15;20.35;;;7.90;;
22606;SDS011;11470;20.968;105.834;2023-08-07T12:50:43;12.70;;;7.20;;
22606;SDS011;11470;20.968;105.834;2023-08-07T12:55:51;14.88;;;7.13;;
22606;SDS011;11470;20.968;105.834;2023-08-07T13:00:57;22.42;;;7.78;;
22606;SDS011;11470;20.968;105.834;2023-08-07T13:11:14;14.10;;;6.75;;
22606;SDS011;11470;20.968;105.834;2023-08-07T13:21:26;15.40;;;8.90;;
22606;SDS011;11470;20.968;105.834;2023-08-07T13:26:32;22.73;;;9.65;;
22606;SDS011;11470;20.968;105.834;2023-08-07T13:31:37;12.68;;;6.93;;
22606;SDS011;11470;20.968;105.834;2023-08-07T13:36:45;16.85;;;9.32;;
22606;SDS011;11470;20.968;105.834;2023-08-07T13:41:50;13.23;;;7.47;;
22606;SDS011;11470;20.968;105.834;2023-08-07T13:46:56;17.75;;;7.93;;
22606;SDS011;11470;20.968;105.834;2023-08-07T13:52:04;20.35;;;9.85;;
22606;SDS011;11470;20.968;105.834;2023-08-07T14:02:34;18.42;;;8.40;;
22606;SDS011;11470;20.968;105.834;2023-08-07T14:07:43;22.08;;;9.82;;
22606;SDS011;11470;20.968;105.834;2023-08-07T14:12:52;13.65;;;7.90;;
22606;SDS011;11470;20.968;105.834;2023-08-07T14:17:57;18.20;;;10.63;;
22606;SDS011;11470;20.968;105.834;2023-08-07T14:23:40;22.30;;;10.65;;
22606;SDS011;11470;20.968;105.834;2023-08-07T14:28:49;22.48;;;11.32;;
22606;SDS011;11470;20.968;105.834;2023-08-07T14:33:58;16.50;;;8.82;;
22606;SDS011;11470;20.968;105.834;2023-08-07T14:39:04;15.00;;;8.57;;
22606;SDS011;11470;20.968;105.834;2023-08-07T14:44:10;14.05;;;6.82;;
22606;SDS011;11470;20.968;105.834;2023-08-07T14:49:43;16.13;;;8.77;;
22606;SDS011;11470;20.968;105.834;2023-08-07T14:54:55;8.38;;;6.03;;
22606;SDS011;11470;20.968;105.834;2023-08-07T15:00:09;19.50;;;8.57;;
22606;SDS011;11470;20.968;105.834;2023-08-07T15:05:20;22.38;;;10.65;;
22606;SDS011;11470;20.968;105.834;2023-08-07T15:10:26;18.10;;;9.40;;
22606;SDS011;11470;20.968;105.834;2023-08-07T15:15:37;15.35;;;8.13;;
22606;SDS011;11470;20.968;105.834;2023-08-07T15:21:01;15.02;;;8.13;;
22606;SDS011;11470;20.968;105.834;2023-08-07T15:26:07;17.88;;;9.05;;
22606;SDS011;11470;20.968;105.834;2023-08-07T15:31:14;23.50;;;9.75;;
22606;SDS011;11470;20.968;105.834;2023-08-07T15:36:20;19.35;;;8.57;;
22606;SDS011;11470;20.968;105.834;2023-08-07T15:41:28;19.23;;;11.10;;
22606;SDS011;11470;20.968;105.834;2023-08-07T15:46:34;23.98;;;10.25;;
22606;SDS011;11470;20.968;105.834;2023-08-07T15:52:23;14.32;;;5.88;;
22606;SDS011;11470;20.968;105.834;2023-08-07T15:57:29;14.82;;;7.47;;
22606;SDS011;11470;20.968;105.834;2023-08-07T16:02:36;15.10;;;7.70;;
22606;SDS011;11470;20.968;105.834;2023-08-07T16:07:42;21.05;;;8.13;;
22606;SDS011;11470;20.968;105.834;2023-08-07T16:19:45;17.35;;;8.75;;
22606;SDS011;11470;20.968;105.834;2023-08-07T16:25:12;17.88;;;8.05;;
22606;SDS011;11470;20.968;105.834;2023-08-07T16:36:33;14.73;;;7.32;;
22606;SDS011;11470;20.968;105.834;2023-08-07T16:47:31;16.15;;;8.05;;
22606;SDS011;11470;20.968;105.834;2023-08-07T16:53:07;20.70;;;8.63;;
22606;SDS011;11470;20.968;105.834;2023-08-07T17:04:17;17.42;;;7.13;;
22606;SDS011;11470;20.968;105.834;2023-08-07T17:09:23;17.48;;;8.80;;
22606;SDS011;11470;20.968;105.834;2023-08-07T17:14:41;11.07;;;7.18;;
22606;SDS011;11470;20.968;105.834;2023-08-07T17:19:47;12.93;;;6.80;;
22606;SDS011;11470;20.968;105.834;2023-08-07T17:24:52;15.95;;;7.47;;
22606;SDS011;11470;20.968;105.834;2023-08-07T17:29:58;12.98;;;6.50;;
22606;SDS011;11470;20.968;105.834;2023-08-07T17:35:04;12.43;;;7.45;;
22606;SDS011;11470;20.968;105.834;2023-08-07T17:40:10;13.95;;;6.35;;
22606;SDS011;11470;20.968;105.834;2023-08-07T17:45:16;12.20;;;6.93;;
22606;SDS011;11470;20.968;105.834;2023-08-07T17:50:22;13.65;;;6.18;;
22606;SDS011;11470;20.968;105.834;2023-08-07T17:55:27;16.35;;;6.63;;
22606;SDS011;11470;20.968;105.834;2023-08-07T18:00:35;13.35;;;5.55;;
22606;SDS011;11470;20.968;105.834;2023-08-07T18:05:41;12.95;;;6.10;;
22606;SDS011;11470;20.968;105.834;2023-08-07T18:10:46;12.23;;;5.60;;
22606;SDS011;11470;20.968;105.834;2023-08-07T18:15:52;9.43;;;5.53;;
22606;SDS011;11470;20.968;105.834;2023-08-07T18:26:02;15.20;;;5.68;;
22606;SDS011;11470;20.968;105.834;2023-08-07T18:31:08;9.88;;;5.35;;
22606;SDS011;11470;20.968;105.834;2023-08-07T18:36:14;12.82;;;5.90;;
22606;SDS011;11470;20.968;105.834;2023-08-07T18:41:19;8.30;;;4.78;;
22606;SDS011;11470;20.968;105.834;2023-08-07T18:46:25;13.07;;;5.68;;
22606;SDS011;11470;20.968;105.834;2023-08-07T18:51:30;10.27;;;5.20;;
22606;SDS011;11470;20.968;105.834;2023-08-07T18:56:35;10.43;;;4.60;;
22606;SDS011;11470;20.968;105.834;2023-08-07T19:01:41;9.90;;;4.63;;
22606;SDS011;11470;20.968;105.834;2023-08-07T19:06:46;9.97;;;4.47;;
22606;SDS011;11470;20.968;105.834;2023-08-07T19:11:51;9.88;;;4.25;;
22606;SDS011;11470;20.968;105.834;2023-08-07T19:16:57;8.70;;;4.10;;
22606;SDS011;11470;20.968;105.834;2023-08-07T19:22:04;8.80;;;3.92;;
22606;SDS011;11470;20.968;105.834;2023-08-07T19:27:10;6.97;;;3.95;;
22606;SDS011;11470;20.968;105.834;2023-08-07T19:37:22;7.07;;;3.80;;
22606;SDS011;11470;20.968;105.834;2023-08-07T19:42:29;4.75;;;2.95;;
22606;SDS011;11470;20.968;105.834;2023-08-07T19:59:26;8.98;;;3.50;;
22606;SDS011;11470;20.968;105.834;2023-08-07T20:04:31;8.20;;;4.50;;
22606;SDS011;11470;20.968;105.834;2023-08-07T20:09:37;9.35;;;4.32;;
22606;SDS011;11470;20.968;105.834;2023-08-07T20:14:42;7.38;;;3.90;;
22606;SDS011;11470;20.968;105.834;2023-08-07T20:19:48;6.20;;;3.70;;
22606;SDS011;11470;20.968;105.834;2023-08-07T20:24:53;8.50;;;3.50;;
22606;SDS011;11470;20.968;105.834;2023-08-07T20:29:58;5.40;;;3.73;;
22606;SDS011;11470;20.968;105.834;2023-08-07T20:35:04;6.57;;;3.90;;
22606;SDS011;11470;20.968;105.834;2023-08-07T20:40:09;6.75;;;3.30;;
22606;SDS011;11470;20.968;105.834;2023-08-07T20:45:16;6.88;;;3.78;;
22606;SDS011;11470;20.968;105.834;2023-08-07T20:50:21;8.55;;;4.53;;
22606;SDS011;11470;20.968;105.834;2023-08-07T21:00:32;8.43;;;5.82;;
22606;SDS011;11470;20.968;105.834;2023-08-07T21:05:38;7.15;;;4.40;;
22606;SDS011;11470;20.968;105.834;2023-08-07T21:15:48;9.05;;;5.13;;
22606;SDS011;11470;20.968;105.834;2023-08-07T21:20:56;15.50;;;7.28;;
22606;SDS011;11470;20.968;105.834;2023-08-07T21:26:02;10.65;;;6.03;;
22606;SDS011;11470;20.968;105.834;2023-08-07T21:31:08;8.93;;;6.00;;
22606;SDS011;11470;20.968;105.834;2023-08-07T21:41:18;11.43;;;6.57;;
22606;SDS011;11470;20.968;105.834;2023-08-07T21:46:24;12.90;;;6.57;;
22606;SDS011;11470;20.968;105.834;2023-08-07T21:51:29;7.65;;;5.13;;
22606;SDS011;11470;20.968;105.834;2023-08-07T21:56:35;9.27;;;4.78;;
22606;SDS011;11470;20.968;105.834;2023-08-07T22:01:45;10.02;;;4.82;;
22606;SDS011;11470;20.968;105.834;2023-08-07T22:06:50;7.63;;;4.57;;
22606;SDS011;11470;20.968;105.834;2023-08-07T22:11:56;10.55;;;4.93;;
22606;SDS011;11470;20.968;105.834;2023-08-07T22:17:02;9.57;;;5.20;;
22606;SDS011;11470;20.968;105.834;2023-08-07T22:22:08;10.63;;;5.25;;
22606;SDS011;11470;20.968;105.834;2023-08-07T22:27:13;8.70;;;4.90;;
22606;SDS011;11470;20.968;105.834;2023-08-07T22:32:19;8.48;;;5.40;;
22606;SDS011;11470;20.968;105.834;2023-08-07T22:37:24;9.00;;;5.20;;
22606;SDS011;11470;20.968;105.834;2023-08-07T22:42:29;8.50;;;4.43;;
22606;SDS011;11470;20.968;105.834;2023-08-07T22:47:35;8.80;;;4.20;;
22606;SDS011;11470;20.968;105.834;2023-08-07T22:57:45;9.35;;;4.15;;
22606;SDS011;11470;20.968;105.834;2023-08-07T23:07:58;7.80;;;3.63;;
22606;SDS011;11470;20.968;105.834;2023-08-07T23:13:04;7.05;;;4.07;;
22606;SDS011;11470;20.968;105.834;2023-08-07T23:18:09;9.32;;;3.58;;
22606;SDS011;11470;20.968;105.834;2023-08-07T23:23:14;7.60;;;4.25;;
22606;SDS011;11470;20.968;105.834;2023-08-07T23:28:20;8.40;;;4.00;;
22606;SDS011;11470;20.968;105.834;2023-08-07T23:38:30;6.40;;;3.65;;
22606;SDS011;11470;20.968;105.834;2023-08-07T23:43:36;6.30;;;3.90;;
22606;SDS011;11470;20.968;105.834;2023-08-07T23:48:41;8.60;;;4.20;;
22606;SDS011;11470;20.968;105.834;2023-08-07T23:53:46;6.45;;;4.07;;
22606;SDS011;11470;20.968;105.834;2023-08-07T23:58:51;11.90;;;3.90;;
